createdAt,value
2022-08-09T00:01:42.767Z,15.40
2022-08-09T00:04:34.406Z,15.30
2022-08-09T00:07:03.624Z,15.30
2022-08-09T00:09:34.786Z,15.30
2022-08-09T00:12:04.940Z,15.30
2022-08-09T00:14:37.814Z,15.30
2022-08-09T00:17:05.394Z,15.20
2022-08-09T00:19:32.342Z,15.20
2022-08-09T00:22:01.282Z,15.20
2022-08-09T00:24:31.994Z,15.20
2022-08-09T00:27:00.217Z,15.20
2022-08-09T00:29:39.260Z,15.10
2022-08-09T00:32:25.402Z,15.10
2022-08-09T00:34:54.096Z,15.00
2022-08-09T00:37:20.905Z,14.90
2022-08-09T00:40:13.403Z,15.00
2022-08-09T00:44:10.447Z,14.90
2022-08-09T00:45:21.501Z,14.90
2022-08-09T00:47:48.353Z,15.00
2022-08-09T00:50:15.245Z,15.00
2022-08-09T00:52:42.577Z,14.90
2022-08-09T00:55:16.783Z,15.00
2022-08-09T00:57:59.317Z,15.00
2022-08-09T01:00:27.639Z,14.90
2022-08-09T01:02:58.620Z,14.90
2022-08-09T01:05:46.454Z,14.90
2022-08-09T01:08:27.046Z,14.90
2022-08-09T01:11:08.552Z,14.90
2022-08-09T01:13:58.675Z,14.90
2022-08-09T01:16:35.294Z,14.90
2022-08-09T01:19:43.065Z,14.90
2022-08-09T01:22:41.073Z,14.90
2022-08-09T01:25:24.329Z,14.90
2022-08-09T01:27:57.129Z,15.00
2022-08-09T01:30:35.839Z,15.00
2022-08-09T01:33:16.915Z,15.00
2022-08-09T01:36:13.617Z,14.80
2022-08-09T01:38:46.371Z,14.90
2022-08-09T01:41:18.971Z,14.90
2022-08-09T01:43:55.726Z,14.80
2022-08-09T01:46:28.015Z,14.70
2022-08-09T01:49:10.520Z,14.70
2022-08-09T01:51:44.661Z,14.60
2022-08-09T01:54:44.225Z,14.50
2022-08-09T01:57:15.345Z,14.50
2022-08-09T01:59:51.910Z,14.50
2022-08-09T02:02:23.873Z,14.40
2022-08-09T02:05:05.272Z,14.40
2022-08-09T02:08:38.590Z,14.30
2022-08-09T02:10:30.916Z,14.20
2022-08-09T02:13:02.889Z,14.00
2022-08-09T02:15:49.640Z,13.90
2022-08-09T02:18:25.360Z,13.80
2022-08-09T02:20:58.966Z,13.70
2022-08-09T02:23:42.681Z,13.60
2022-08-09T02:26:26.961Z,13.50
2022-08-09T02:29:00.297Z,13.50
2022-08-09T02:31:38.118Z,13.40
2022-08-09T02:34:25.970Z,13.40
2022-08-09T02:37:12.194Z,13.30
2022-08-09T02:39:45.351Z,13.20
2022-08-09T02:42:29.577Z,13.10
2022-08-09T02:45:02.032Z,13.00
2022-08-09T02:47:33.830Z,13.00
2022-08-09T02:50:22.788Z,12.80
2022-08-09T02:53:03.650Z,12.70
2022-08-09T02:55:46.086Z,12.70
2022-08-09T02:58:35.967Z,12.60
2022-08-09T03:01:07.953Z,12.60
2022-08-09T03:04:16.925Z,12.50
2022-08-09T03:06:27.747Z,12.40
2022-08-09T03:08:56.299Z,12.30
2022-08-09T03:12:04.528Z,12.30
2022-08-09T03:14:12.754Z,12.40
2022-08-09T03:16:45.074Z,12.30
2022-08-09T03:19:58.649Z,12.30
2022-08-09T03:22:06.109Z,12.30
2022-08-09T03:24:51.721Z,12.40
2022-08-09T03:27:21.233Z,12.30
2022-08-09T03:29:57.650Z,12.30
2022-08-09T03:32:33.213Z,12.30
2022-08-09T03:35:05.001Z,12.20
2022-08-09T03:37:55.270Z,12.20
2022-08-09T03:40:24.541Z,12.10
2022-08-09T03:42:51.745Z,12.10
2022-08-09T03:46:04.036Z,12.10
2022-08-09T03:48:05.848Z,12.00
2022-08-09T03:50:35.207Z,12.00
2022-08-09T03:53:06.140Z,12.00
2022-08-09T03:55:40.971Z,12.00
2022-08-09T03:58:16.809Z,11.90
2022-08-09T04:00:46.081Z,11.80
2022-08-09T04:03:24.890Z,11.90
2022-08-09T04:06:04.629Z,12.00
2022-08-09T04:08:32.641Z,11.90
2022-08-09T04:11:01.803Z,12.00
2022-08-09T04:14:37.396Z,12.00
2022-08-09T04:16:19.560Z,11.90
2022-08-09T04:18:48.058Z,11.90
2022-08-09T04:21:18.441Z,12.00
2022-08-09T04:23:53.702Z,12.20
2022-08-09T04:26:23.372Z,12.40
2022-08-09T04:28:50.467Z,12.50
2022-08-09T04:31:17.293Z,12.60
2022-08-09T04:33:47.377Z,12.80
2022-08-09T04:36:25.116Z,13.00
2022-08-09T04:39:00.228Z,13.20
2022-08-09T04:41:32.964Z,13.30
2022-08-09T04:44:09.583Z,13.40
2022-08-09T04:46:59.173Z,13.50
2022-08-09T04:49:40.296Z,13.50
2022-08-09T04:52:22.198Z,13.60
2022-08-09T04:54:59.425Z,13.60
2022-08-09T04:57:26.997Z,13.70
2022-08-09T05:00:14.215Z,13.70
2022-08-09T05:02:44.299Z,13.70
2022-08-09T05:05:51.782Z,13.80
2022-08-09T05:08:05.745Z,13.80
2022-08-09T05:10:34.262Z,13.90
2022-08-09T05:13:04.086Z,13.90
2022-08-09T05:15:39.237Z,14.00
2022-08-09T05:18:55.041Z,14.00
2022-08-09T05:21:01.944Z,14.10
2022-08-09T05:23:54.966Z,14.10
2022-08-09T05:26:16.144Z,14.10
2022-08-09T05:28:59.003Z,14.20
2022-08-09T05:31:44.275Z,14.30
2022-08-09T05:34:17.007Z,14.20
2022-08-09T05:36:47.155Z,14.30
2022-08-09T05:39:28.373Z,14.30
2022-08-09T05:41:56.616Z,14.40
2022-08-09T05:44:28.991Z,14.40
2022-08-09T05:47:00.394Z,14.50
2022-08-09T05:50:30.610Z,14.50
2022-08-09T05:52:14.568Z,14.60
2022-08-09T05:54:42.408Z,14.70
2022-08-09T05:57:12.536Z,14.70
2022-08-09T05:59:41.877Z,14.70
2022-08-09T06:02:10.026Z,14.80
2022-08-09T06:04:44.807Z,14.80
2022-08-09T06:07:21.576Z,14.80
2022-08-09T06:10:01.992Z,14.90
2022-08-09T06:12:30.464Z,15.00
2022-08-09T06:15:01.150Z,15.00
2022-08-09T06:17:40.126Z,15.10
2022-08-09T06:20:08.413Z,15.20
2022-08-09T06:22:36.253Z,15.20
2022-08-09T06:25:03.792Z,15.20
2022-08-09T06:27:42.136Z,15.30
2022-08-09T06:30:14.065Z,15.40
2022-08-09T06:33:00.900Z,15.40
2022-08-09T06:35:56.204Z,15.50
2022-08-09T06:38:16.836Z,15.50
2022-08-09T06:40:43.963Z,15.60
2022-08-09T06:43:11.527Z,15.70
2022-08-09T06:46:07.843Z,15.80
2022-08-09T06:48:26.113Z,15.80
2022-08-09T06:50:57.924Z,15.90
2022-08-09T06:53:26.362Z,16.00
2022-08-09T06:55:53.390Z,16.10
2022-08-09T06:58:40.619Z,16.10
2022-08-09T07:01:07.992Z,16.20
2022-08-09T07:03:39.717Z,16.30
2022-08-09T07:06:20.123Z,16.40
2022-08-09T07:08:49.511Z,16.40
2022-08-09T07:11:17.612Z,16.50
2022-08-09T07:14:04.532Z,16.60
2022-08-09T07:16:43.269Z,16.70
2022-08-09T07:19:23.160Z,16.70
2022-08-09T07:21:57.730Z,16.80
2022-08-09T07:24:32.425Z,16.90
2022-08-09T07:27:26.260Z,17.00
2022-08-09T07:29:58.294Z,17.10
2022-08-09T07:32:33.636Z,17.20
2022-08-09T07:35:10.598Z,17.30
2022-08-09T07:37:43.236Z,17.40
2022-08-09T07:40:18.616Z,17.50
2022-08-09T07:43:00.408Z,17.60
2022-08-09T07:45:37.901Z,17.70
2022-08-09T07:48:25.481Z,17.70
2022-08-09T07:51:09.656Z,17.90
2022-08-09T07:54:07.073Z,18.00
2022-08-09T07:56:36.915Z,18.10
2022-08-09T07:59:16.117Z,18.10
2022-08-09T08:01:56.098Z,18.30
2022-08-09T08:04:31.267Z,18.40
2022-08-09T08:07:15.467Z,18.50
2022-08-09T08:09:53.320Z,18.60
2022-08-09T08:12:27.569Z,18.80
2022-08-09T08:14:57.035Z,19.00
2022-08-09T08:17:52.358Z,19.00
2022-08-09T08:20:12.953Z,19.10
2022-08-09T08:22:40.685Z,19.30
2022-08-09T08:25:13.240Z,19.40
2022-08-09T08:27:43.100Z,19.50
2022-08-09T08:30:12.080Z,19.80
2022-08-09T08:32:52.241Z,19.90
2022-08-09T08:35:22.349Z,20.00
2022-08-09T08:37:59.495Z,20.10
2022-08-09T08:40:32.710Z,20.10
2022-08-09T08:43:03.205Z,20.20
2022-08-09T08:45:51.725Z,20.40
2022-08-09T08:48:22.252Z,20.50
2022-08-09T08:50:51.837Z,20.60
2022-08-09T08:53:21.990Z,20.80
2022-08-09T08:55:49.172Z,20.90
2022-08-09T08:58:27.231Z,21.10
2022-08-09T09:00:56.844Z,21.20
2022-08-09T09:03:37.133Z,21.40
2022-08-09T09:06:07.219Z,21.60
2022-08-09T09:08:40.652Z,21.70
2022-08-09T09:11:13.645Z,21.70
2022-08-09T09:13:57.038Z,21.90
2022-08-09T09:16:32.251Z,22.00
2022-08-09T09:19:36.811Z,22.30
2022-08-09T09:22:04.346Z,22.80
2022-08-09T09:24:39.825Z,23.30
2022-08-09T09:28:03.058Z,23.70
2022-08-09T09:30:13.793Z,24.00
2022-08-09T09:33:17.098Z,24.40
2022-08-09T09:36:20.487Z,24.80
2022-08-09T09:38:51.080Z,24.60
2022-08-09T09:41:23.646Z,24.90
2022-08-09T09:44:11.642Z,24.90
2022-08-09T09:46:43.397Z,24.80
2022-08-09T09:49:18.672Z,24.80
2022-08-09T09:52:06.648Z,25.00
2022-08-09T09:54:48.793Z,25.00
2022-08-09T09:58:03.044Z,24.90
2022-08-09T10:00:24.971Z,25.10
2022-08-09T10:02:53.678Z,25.50
2022-08-09T10:05:26.886Z,25.50
2022-08-09T10:08:27.466Z,25.80
2022-08-09T10:10:52.219Z,25.70
2022-08-09T10:13:24.607Z,25.80
2022-08-09T10:16:55.033Z,26.20
2022-08-09T10:18:54.690Z,26.70
2022-08-09T10:21:23.966Z,27.00
2022-08-09T10:23:53.505Z,26.80
2022-08-09T10:26:22.220Z,27.00
2022-08-09T10:29:37.591Z,27.00
2022-08-09T10:32:27.775Z,27.10
2022-08-09T10:34:33.528Z,27.30
2022-08-09T10:37:02.581Z,27.60
2022-08-09T10:39:40.526Z,27.90
2022-08-09T10:42:16.139Z,27.80
2022-08-09T10:44:49.909Z,27.60
2022-08-09T10:48:17.059Z,27.40
2022-08-09T10:51:14.865Z,27.70
2022-08-09T10:54:06.115Z,27.80
2022-08-09T10:56:40.794Z,28.20
2022-08-09T10:59:31.825Z,28.00
2022-08-09T11:03:15.527Z,28.10
2022-08-09T11:05:24.801Z,28.30
2022-08-09T11:07:59.258Z,28.20
2022-08-09T11:10:53.357Z,28.50
2022-08-09T11:13:49.891Z,28.40
2022-08-09T11:16:35.056Z,29.10
2022-08-09T11:19:03.243Z,29.20
2022-08-09T11:22:05.358Z,29.20
2022-08-09T11:24:57.816Z,28.80
2022-08-09T11:28:04.603Z,29.10
2022-08-09T11:30:33.647Z,29.20
2022-08-09T11:33:19.811Z,29.20
2022-08-09T11:35:54.845Z,29.30
2022-08-09T11:38:32.654Z,28.90
2022-08-09T11:41:38.362Z,29.50
2022-08-09T11:44:07.875Z,29.20
2022-08-09T11:46:55.299Z,28.40
2022-08-09T11:50:55.786Z,27.80
2022-08-09T11:53:58.874Z,28.20
2022-08-09T11:55:53.852Z,28.80
2022-08-09T11:58:33.159Z,28.40
2022-08-09T12:01:08.772Z,28.40
2022-08-09T12:03:56.638Z,28.50
2022-08-09T12:06:32.542Z,28.40
2022-08-09T12:09:05.801Z,28.70
2022-08-09T12:12:03.427Z,28.80
2022-08-09T12:14:36.642Z,29.00
2022-08-09T12:17:27.661Z,29.20
2022-08-09T12:19:59.449Z,29.30
2022-08-09T12:22:27.864Z,29.10
2022-08-09T12:25:16.815Z,29.50
2022-08-09T12:29:13.651Z,29.60
2022-08-09T12:30:36.800Z,29.70
2022-08-09T12:33:06.217Z,29.00
2022-08-09T12:35:40.798Z,28.70
2022-08-09T12:38:37.314Z,29.00
2022-08-09T12:41:07.191Z,29.10
2022-08-09T12:44:06.463Z,29.40
2022-08-09T12:46:24.472Z,29.60
2022-08-09T12:48:53.956Z,29.70
2022-08-09T12:51:52.287Z,29.70
2022-08-09T12:54:09.677Z,29.70
2022-08-09T12:56:51.013Z,30.20
2022-08-09T12:59:20.674Z,30.30
2022-08-09T13:02:09.364Z,29.70
2022-08-09T13:04:38.745Z,29.80
2022-08-09T13:07:16.938Z,29.80
2022-08-09T13:09:55.621Z,30.10
2022-08-09T13:12:29.255Z,29.50
2022-08-09T13:15:07.114Z,29.30
2022-08-09T13:18:03.229Z,29.00
2022-08-09T13:20:37.899Z,29.10
2022-08-09T13:24:15.830Z,29.30
2022-08-09T13:26:36.911Z,29.70
2022-08-09T13:29:13.881Z,30.00
2022-08-09T13:32:16.285Z,29.90
2022-08-09T13:34:48.825Z,30.20
2022-08-09T13:37:51.002Z,30.00
2022-08-09T13:41:50.971Z,30.10
2022-08-09T13:42:51.428Z,30.20
2022-08-09T13:45:19.059Z,30.30
2022-08-09T13:47:49.163Z,30.10
2022-08-09T13:50:30.481Z,30.30
2022-08-09T13:52:57.755Z,30.40
2022-08-09T13:55:24.748Z,30.80
2022-08-09T13:57:58.373Z,30.90
2022-08-09T14:00:28.471Z,31.20
2022-08-09T14:03:04.238Z,31.10
2022-08-09T14:06:00.432Z,31.20
2022-08-09T14:08:30.472Z,30.90
2022-08-09T14:10:59.561Z,30.70
2022-08-09T14:14:22.923Z,30.80
2022-08-09T14:16:28.570Z,31.30
2022-08-09T14:18:58.169Z,31.40
2022-08-09T14:21:29.558Z,32.30
2022-08-09T14:24:01.394Z,32.50
2022-08-09T14:26:37.736Z,32.70
2022-08-09T14:30:04.454Z,32.60
2022-08-09T14:31:55.182Z,32.20
2022-08-09T14:34:31.262Z,32.00
2022-08-09T14:37:06.806Z,31.70
2022-08-09T14:39:46.938Z,31.80
2022-08-09T14:42:40.535Z,31.50
2022-08-09T14:46:46.401Z,31.40
2022-08-09T14:47:57.484Z,31.60
2022-08-09T14:50:30.467Z,32.00
2022-08-09T14:52:58.360Z,31.80
2022-08-09T14:55:25.509Z,31.00
2022-08-09T14:57:56.269Z,31.20
2022-08-09T15:00:24.579Z,31.20
2022-08-09T15:02:53.924Z,31.40
2022-08-09T15:05:20.872Z,31.60
2022-08-09T15:07:54.828Z,32.10
2022-08-09T15:10:25.537Z,32.00
2022-08-09T15:12:53.731Z,32.10
2022-08-09T15:15:21.148Z,32.10
2022-08-09T15:17:52.434Z,32.10
2022-08-09T15:21:54.617Z,31.70
2022-08-09T15:24:02.955Z,31.80
2022-08-09T15:25:57.440Z,31.90
2022-08-09T15:28:28.024Z,31.20
2022-08-09T15:31:09.931Z,31.30
2022-08-09T15:34:15.378Z,30.90
2022-08-09T15:36:29.174Z,30.60
2022-08-09T15:38:59.871Z,31.30
2022-08-09T15:41:31.758Z,31.40
2022-08-09T15:44:03.858Z,31.80
2022-08-09T15:46:32.982Z,32.00
2022-08-09T15:49:21.595Z,31.80
2022-08-09T15:52:03.626Z,31.20
2022-08-09T15:54:44.800Z,30.70
2022-08-09T15:57:14.442Z,31.60
2022-08-09T16:00:02.046Z,31.60
2022-08-09T16:02:31.620Z,31.30
2022-08-09T16:04:58.457Z,31.60
2022-08-09T16:07:29.483Z,31.50
2022-08-09T16:10:11.095Z,31.60
2022-08-09T16:12:50.111Z,32.50
2022-08-09T16:16:11.128Z,32.70
2022-08-09T16:18:05.576Z,32.30
2022-08-09T16:20:36.000Z,31.90
2022-08-09T16:23:06.328Z,30.90
2022-08-09T16:25:39.956Z,30.50
2022-08-09T16:28:07.596Z,30.50
2022-08-09T16:30:44.439Z,30.70
2022-08-09T16:33:15.847Z,30.70
2022-08-09T16:35:55.906Z,31.00
2022-08-09T16:38:24.935Z,31.30
2022-08-09T16:40:52.224Z,31.40
2022-08-09T16:43:20.885Z,31.40
2022-08-09T16:45:53.456Z,31.70
2022-08-09T16:48:39.465Z,31.20
2022-08-09T16:51:13.728Z,31.00
2022-08-09T16:54:02.378Z,30.90
2022-08-09T16:56:30.478Z,30.70
2022-08-09T16:58:58.464Z,31.40
2022-08-09T17:01:26.413Z,32.10
2022-08-09T17:03:54.364Z,32.20
2022-08-09T17:06:32.041Z,32.00
2022-08-09T17:09:17.524Z,31.70
2022-08-09T17:11:48.213Z,32.00
2022-08-09T17:14:27.108Z,32.00
2022-08-09T17:17:02.199Z,31.70
2022-08-09T17:19:47.312Z,32.00
2022-08-09T17:22:23.784Z,32.00
2022-08-09T17:25:10.294Z,31.50
2022-08-09T17:27:49.111Z,31.50
2022-08-09T17:30:21.463Z,31.30
2022-08-09T17:32:53.209Z,31.50
2022-08-09T17:35:20.088Z,31.40
2022-08-09T17:38:02.293Z,31.20
2022-08-09T17:40:35.994Z,30.90
2022-08-09T17:43:32.672Z,30.70
2022-08-09T17:46:03.170Z,30.70
2022-08-09T17:48:38.449Z,30.40
2022-08-09T17:51:17.092Z,30.00
2022-08-09T17:53:48.105Z,29.60
2022-08-09T17:56:20.364Z,29.40
2022-08-09T17:58:47.544Z,29.70
2022-08-09T18:01:22.405Z,29.60
2022-08-09T18:03:52.679Z,29.40
2022-08-09T18:06:31.301Z,29.10
2022-08-09T18:09:03.132Z,29.30
2022-08-09T18:12:05.765Z,29.30
2022-08-09T18:14:23.323Z,29.30
2022-08-09T18:16:53.016Z,29.00
2022-08-09T18:20:57.359Z,29.20
2022-08-09T18:22:13.122Z,29.30
2022-08-09T18:24:45.785Z,29.10
2022-08-09T18:27:33.630Z,28.80
2022-08-09T18:30:38.427Z,28.50
2022-08-09T18:32:54.337Z,28.10
2022-08-09T18:35:58.296Z,27.70
2022-08-09T18:38:09.712Z,27.20
2022-08-09T18:40:39.952Z,26.50
2022-08-09T18:43:06.939Z,25.80
2022-08-09T18:46:49.612Z,25.30
2022-08-09T18:48:20.587Z,24.70
2022-08-09T18:50:47.476Z,24.30
2022-08-09T18:53:16.371Z,23.90
2022-08-09T18:55:56.361Z,23.40
2022-08-09T18:58:32.462Z,22.90
2022-08-09T19:01:00.655Z,22.50
2022-08-09T19:03:28.588Z,22.10
2022-08-09T19:06:03.122Z,21.80
2022-08-09T19:08:31.199Z,21.50
2022-08-09T19:10:58.123Z,21.20
2022-08-09T19:13:49.723Z,21.00
2022-08-09T19:16:13.067Z,20.80
2022-08-09T19:18:45.275Z,20.50
2022-08-09T19:21:12.731Z,20.30
2022-08-09T19:24:31.821Z,20.10
2022-08-09T19:26:35.081Z,19.90
2022-08-09T19:29:15.266Z,19.70
2022-08-09T19:31:49.457Z,19.60
2022-08-09T19:34:22.750Z,19.40
2022-08-09T19:36:55.678Z,19.30
2022-08-09T19:39:43.280Z,19.10
2022-08-09T19:42:14.708Z,19.00
2022-08-09T19:44:49.388Z,18.80
2022-08-09T19:47:23.472Z,18.70
2022-08-09T19:50:09.279Z,18.60
2022-08-09T19:52:49.312Z,18.40
2022-08-09T19:55:25.797Z,18.40
2022-08-09T19:58:06.790Z,18.30
2022-08-09T20:00:45.571Z,18.20
2022-08-09T20:04:12.489Z,18.20
2022-08-09T20:06:03.140Z,18.00
2022-08-09T20:08:35.142Z,18.00
2022-08-09T20:11:04.104Z,17.90
2022-08-09T20:13:36.965Z,17.80
2022-08-09T20:16:36.156Z,17.70
2022-08-09T20:19:03.979Z,17.70
2022-08-09T20:21:56.853Z,17.60
2022-08-09T20:24:29.513Z,17.50
2022-08-09T20:27:02.446Z,17.40
2022-08-09T20:29:37.090Z,17.40
2022-08-09T20:32:30.085Z,17.30
2022-08-09T20:34:54.053Z,17.20
2022-08-09T20:37:22.490Z,17.10
2022-08-09T20:40:15.291Z,17.00
2022-08-09T20:42:37.708Z,16.90
2022-08-09T20:46:00.452Z,16.80
2022-08-09T20:47:53.113Z,16.80
2022-08-09T20:50:47.309Z,16.70
2022-08-09T20:53:22.698Z,16.70
2022-08-09T20:56:00.795Z,16.60
2022-08-09T20:58:32.889Z,16.60
2022-08-09T21:01:32.226Z,16.50
2022-08-09T21:05:49.013Z,16.40
2022-08-09T21:06:36.832Z,16.40
2022-08-09T21:09:11.999Z,16.40
2022-08-09T21:14:31.221Z,16.30
2022-08-09T21:17:00.401Z,16.20
2022-08-09T21:20:18.200Z,16.10
2022-08-09T21:22:36.073Z,16.10
2022-08-09T21:25:20.964Z,16.10
2022-08-09T21:27:52.577Z,16.10
2022-08-09T21:30:22.505Z,16.10
2022-08-09T21:32:50.521Z,16.00
2022-08-09T21:35:18.383Z,15.90
2022-08-09T21:37:59.229Z,15.90
2022-08-09T21:40:30.603Z,15.80
2022-08-09T21:43:01.262Z,15.80
2022-08-09T21:45:28.700Z,15.80
2022-08-09T21:47:58.196Z,15.70
2022-08-09T21:50:38.363Z,15.70
2022-08-09T21:53:24.103Z,15.60
2022-08-09T21:55:54.920Z,15.50
2022-08-09T21:58:30.998Z,15.50
2022-08-09T22:00:59.225Z,15.50
2022-08-09T22:03:26.291Z,15.40
2022-08-09T22:05:54.873Z,15.30
2022-08-09T22:08:24.573Z,15.30
2022-08-09T22:11:00.512Z,15.30
2022-08-09T22:13:43.195Z,15.20
2022-08-09T22:16:11.613Z,15.20
2022-08-09T22:18:53.041Z,15.20
2022-08-09T22:21:22.339Z,15.20
2022-08-09T22:24:01.545Z,15.20
2022-08-09T22:26:35.249Z,15.20
2022-08-09T22:29:09.337Z,15.20
2022-08-09T22:31:38.721Z,15.10
2022-08-09T22:34:17.494Z,15.10
2022-08-09T22:36:47.911Z,15.00
2022-08-09T22:39:46.824Z,15.00
2022-08-09T22:42:04.073Z,14.90
2022-08-09T22:44:47.431Z,14.90
2022-08-09T22:48:17.012Z,14.90
2022-08-09T22:50:01.092Z,14.80
2022-08-09T22:52:28.063Z,14.80
2022-08-09T22:54:56.557Z,14.90
2022-08-09T22:57:23.392Z,14.90
2022-08-09T23:00:02.803Z,14.90
2022-08-09T23:02:29.680Z,15.00
2022-08-09T23:04:56.952Z,15.10
2022-08-09T23:08:22.916Z,15.10
2022-08-09T23:10:31.598Z,15.10
2022-08-09T23:12:59.458Z,15.10
2022-08-09T23:15:27.123Z,15.20
2022-08-09T23:17:54.719Z,15.20
2022-08-09T23:20:21.837Z,15.20
2022-08-09T23:22:48.911Z,15.20
2022-08-09T23:25:16.607Z,15.20
2022-08-09T23:28:15.063Z,15.20
2022-08-09T23:30:30.575Z,15.30
2022-08-09T23:32:57.452Z,15.20
2022-08-09T23:35:24.352Z,15.20
2022-08-09T23:37:51.179Z,15.20
2022-08-09T23:40:18.072Z,15.20
2022-08-09T23:42:44.932Z,15.20
2022-08-09T23:45:37.341Z,15.40
2022-08-09T23:47:58.776Z,15.50
2022-08-09T23:50:25.619Z,15.60
2022-08-09T23:52:52.693Z,15.80
2022-08-09T23:55:19.596Z,16.00
2022-08-09T23:58:02.705Z,16.10
